Latest  Newer  Older  Last 2 hours animation  Current image  Latest image 
Rain/snow radar  Infrared sat images 
Real-time lightning map

All time is UTC (add 2 hours to UTC in wintertime, 3 hours to UTC in DST for Latvia local time)

2018/12/10 07:50 EVRA 100750Z 19005KT 1800 BR OVC001 02/02 Q0992 R18/290195 NOSIG
2018/12/10 07:50 EVLA 100750Z AUTO 27006KT 9999 FEW017/// SCT023/// OVC050/// 04/02 Q0993
2018/12/10 07:50 EVVA 100750Z AUTO 26006KT 9999 BKN014 BKN021 OVC027 04/04 Q0992
2018/12/10 07:50 EYKA 100750Z 22004KT 180V250 5000 BR OVC003 04/03 Q0995 R08/2///95
2018/12/10 07:50 EYPA 100750Z 30005KT 260V360 9999 -RA BKN012 04/03 Q0994 R19/2///95
2018/12/10 07:50 EYSA 100750Z 22007KT 7000 FEW003 BKN029 03/03 Q0993 R14L/29//95 WHT TEMPO 9000 BLU
2018/12/10 07:50 EYVI 100750Z 19006KT 1100 0350N R01/1700N BR PRFG OVC001 03/03 Q0995 R01/2/0195 TEMPO 0600 FG
2018/12/10 07:50 EEKA 100750Z 14010KT 9999 OVC003 03/03 Q0991
2018/12/10 07:50 EEKE 100750Z 18005KT 6000 OVC003 04/03 Q0991 R17/290195
2018/12/10 07:50 EEPU 100750Z 11004KT 050V150 2700 -SNRA BR BKN006 01/01 Q0992
2018/12/10 07:50 EETN 100750Z 12007KT 8000 -RA OVC009 01/00 Q0993 R08/290195 NOSIG
2018/12/10 07:50 EETU 100750Z 12009KT 9999 OVC008 01/00 Q0994
   RIGA AIRPORT     EVRA               56 55N  023 58E   10   X     T          6 LV
   LIEPAJA INTL     EVLA        26406  56 31N  021 06E    4   X                8 LV
   VENTPILS         EVVA               57 21N  021 33E    6   X                8 LV
   KAUNAS           EYKA               54 54N  023 55E   77   X     T          6 LT
   PALANGA INTL     EYPA               55 55N  021 03E   10   X                6 LT
   SIAULIAI INTL    EYSA               55 54N  023 24E  135   X     T          6 LT
   VILNIUS INTL     EYVI        26730  54 38N  025 17E  197   X     T          6 LT
   KARDLA           EEKA        26116  58 59N  022 50E    4   X                8 EE
   KURESSAARE       EEKE               58 14N  022 31E    4   X                8 EE
   PARNU            EEPU               58 25N  024 28E   14   X                8 EE
   TALLINN          EETN        26038  59 24N  024 49E   40   X     T          8 EE
   TARTU            EETU               58 19N  026 41E   67   X                8 EE

cloud coverage image from sat24.com and METAR data from weather.noaa.gov